Time;durP1;ratioP1;P1;durP2;ratioP2;P2;SDS_P1;SDS_P2;PMS_P1;PMS_P2;Temp;Humidity;BMP_temperature;BMP_pressure;BME280_temperature;BME280_humidity;BME280_pressure;Samples;Min_cycle;Max_cycle;Signal;HPM_P1;HPM_P2
2022/09/20 00:00:50;;;;;;;;;;;12.30;99.90;;;;;;5039917;28;20398;-80
2022/09/20 00:03:16;;;;;;;;;;;12.40;99.90;;;;;;5057025;28;19924;-80
2022/09/20 00:05:43;;;;;;;;;;;12.40;99.90;;;;;;5040088;28;19931;-80
2022/09/20 00:08:10;;;;;;;;;;;12.50;99.90;;;;;;5040310;28;19924;-79
2022/09/20 00:10:38;;;;;;;;;;;12.50;99.90;;;;;;5057356;28;20306;-79
2022/09/20 00:13:04;;;;;;;;;;;12.50;99.90;;;;;;5040227;28;19932;-80
2022/09/20 00:15:30;;;;;;;;;;;12.50;99.90;;;;;;5039886;28;20429;-79
2022/09/20 00:17:56;;;;;;;;;;;12.50;99.90;;;;;;5039826;28;19925;-79
2022/09/20 00:20:22;;;;;;;;;;;12.50;99.90;;;;;;5056036;28;19930;-80
2022/09/20 00:22:48;;;;;;;;;;;12.50;99.90;;;;;;5056365;28;19950;-80
2022/09/20 00:25:15;;;;;;;;;;;12.50;99.90;;;;;;5056259;28;20364;-79
2022/09/20 00:27:40;;;;;;;;;;;12.50;99.90;;;;;;5039440;28;19924;-80
2022/09/20 00:30:06;;;;;;;;;;;12.50;99.90;;;;;;5039475;28;19939;-80
2022/09/20 00:32:32;;;;;;;;;;;12.50;99.90;;;;;;5056305;28;19925;-79
2022/09/20 00:35:06;;;;;;;;;;;12.50;99.90;;;;;;5056415;28;19925;-79
2022/09/20 00:37:36;;;;;;;;;;;12.50;99.90;;;;;;5025093;28;19932;-80
2022/09/20 00:40:03;;;;;;;;;;;12.40;99.90;;;;;;5039123;28;19925;-80
2022/09/20 00:42:29;;;;;;;;;;;12.40;99.90;;;;;;5039444;28;19924;-79
2022/09/20 00:44:59;;;;;;;;;;;12.40;99.90;;;;;;5056053;28;19930;-79
2022/09/20 00:47:44;;;;;;;;;;;12.30;99.90;;;;;;5039714;28;19928;-79
2022/09/20 00:50:20;;;;;;;;;;;12.30;99.90;;;;;;5008941;28;20339;-79
2022/09/20 00:52:47;;;;;;;;;;;12.30;99.90;;;;;;5056323;28;19974;-79
2022/09/20 00:55:14;;;;;;;;;;;12.30;99.90;;;;;;5055955;28;19929;-79
2022/09/20 00:57:41;;;;;;;;;;;12.30;99.90;;;;;;5055711;28;19978;-79
2022/09/20 01:00:08;;;;;;;;;;;12.50;99.90;;;;;;5055712;28;19924;-79
2022/09/20 01:02:35;;;;;;;;;;;12.50;99.90;;;;;;5055848;28;20434;-79
2022/09/20 01:05:01;;;;;;;;;;;12.60;99.90;;;;;;5039395;28;19938;-79
2022/09/20 01:07:27;;;;;;;;;;;12.60;99.90;;;;;;5055585;28;20371;-79
2022/09/20 01:09:52;;;;;;;;;;;12.70;99.90;;;;;;5039635;28;19924;-79
2022/09/20 01:12:20;;;;;;;;;;;12.70;99.90;;;;;;5043572;28;19931;-79
2022/09/20 01:14:47;;;;;;;;;;;12.80;99.90;;;;;;5060157;28;19932;-79
2022/09/20 01:17:13;;;;;;;;;;;12.80;99.90;;;;;;5059936;28;20015;-79
2022/09/20 01:19:52;;;;;;;;;;;12.80;99.90;;;;;;5060589;28;20073;-79
2022/09/20 01:22:21;;;;;;;;;;;12.80;99.90;;;;;;5060022;28;20249;-79
2022/09/20 01:24:50;;;;;;;;;;;12.70;99.90;;;;;;5043905;28;20020;-79
2022/09/20 01:27:22;;;;;;;;;;;12.70;99.90;;;;;;5056081;28;20011;-79
2022/09/20 01:29:55;;;;;;;;;;;12.70;99.90;;;;;;5056577;28;19925;-79
2022/09/20 01:32:22;;;;;;;;;;;12.70;99.90;;;;;;5056668;28;19932;-79
2022/09/20 01:34:58;;;;;;;;;;;12.70;99.90;;;;;;5056234;28;20353;-79
2022/09/20 01:37:30;;;;;;;;;;;12.70;99.90;;;;;;5040369;28;20088;-79
2022/09/20 01:40:05;;;;;;;;;;;12.70;99.90;;;;;;5055808;28;19924;-79
2022/09/20 01:42:32;;;;;;;;;;;12.70;99.90;;;;;;5056419;28;19931;-79
2022/09/20 01:45:01;;;;;;;;;;;12.70;99.90;;;;;;5039480;28;19924;-79
2022/09/20 01:47:35;;;;;;;;;;;12.70;99.90;;;;;;5056032;28;20371;-79
2022/09/20 01:50:10;;;;;;;;;;;12.80;99.90;;;;;;5055849;28;20385;-79
2022/09/20 01:52:58;;;;;;;;;;;12.80;99.90;;;;;;5056005;28;19925;-80
2022/09/20 01:55:27;;;;;;;;;;;12.70;99.90;;;;;;5055052;28;19925;-80
2022/09/20 01:58:09;;;;;;;;;;;12.60;99.90;;;;;;5055786;28;19951;-80
2022/09/20 02:00:47;;;;;;;;;;;12.50;99.90;;;;;;5038893;28;20373;-80
2022/09/20 02:03:34;;;;;;;;;;;12.50;99.90;;;;;;5055806;28;19928;-80
2022/09/20 02:06:03;;;;;;;;;;;12.40;99.90;;;;;;5056078;28;20391;-80
2022/09/20 02:08:38;;;;;;;;;;;12.30;99.90;;;;;;5039472;28;19994;-80
2022/09/20 02:11:07;;;;;;;;;;;12.30;99.90;;;;;;5039013;28;19929;-80
2022/09/20 02:13:38;;;;;;;;;;;12.30;99.90;;;;;;5055567;28;19974;-79
2022/09/20 02:16:10;;;;;;;;;;;12.30;99.90;;;;;;5055451;28;19924;-80
2022/09/20 02:18:41;;;;;;;;;;;12.30;99.90;;;;;;5055624;28;19925;-80
2022/09/20 02:21:18;;;;;;;;;;;12.30;99.90;;;;;;5054444;28;19951;-80
2022/09/20 02:23:55;;;;;;;;;;;12.30;99.90;;;;;;5038538;28;19928;-80
2022/09/20 02:26:32;;;;;;;;;;;12.30;99.90;;;;;;5054965;28;19931;-79
2022/09/20 02:29:06;;;;;;;;;;;12.40;99.90;;;;;;5059292;28;19924;-79
2022/09/20 02:31:47;;;;;;;;;;;12.40;99.90;;;;;;5041860;28;19925;-80
2022/09/20 02:34:28;;;;;;;;;;;12.40;99.90;;;;;;5058406;28;20381;-80
2022/09/20 02:37:12;;;;;;;;;;;12.30;99.90;;;;;;5041902;28;19929;-79
2022/09/20 02:39:46;;;;;;;;;;;12.40;99.90;;;;;;5058042;28;20023;-80
2022/09/20 02:42:16;;;;;;;;;;;12.40;99.90;;;;;;5058277;28;20364;-80
2022/09/20 02:44:52;;;;;;;;;;;12.40;99.90;;;;;;5058281;28;19967;-79
2022/09/20 02:47:27;;;;;;;;;;;12.40;99.90;;;;;;5041347;28;19930;-80
2022/09/20 02:49:52;;;;;;;;;;;12.40;99.90;;;;;;5041450;28;19974;-80
2022/09/20 02:52:27;;;;;;;;;;;12.40;99.90;;;;;;5058358;28;19924;-80
2022/09/20 02:54:55;;;;;;;;;;;12.40;99.90;;;;;;5058773;28;19924;-80
2022/09/20 02:57:24;;;;;;;;;;;12.40;99.90;;;;;;5058109;28;19925;-80
2022/09/20 02:59:58;;;;;;;;;;;12.40;99.90;;;;;;5058213;28;20023;-80
2022/09/20 03:02:34;;;;;;;;;;;12.40;99.90;;;;;;5058827;28;19929;-80
2022/09/20 03:04:59;;;;;;;;;;;12.40;99.90;;;;;;5058243;28;20429;-79
2022/09/20 03:07:31;;;;;;;;;;;12.40;99.90;;;;;;5057912;28;19950;-79
2022/09/20 03:10:12;;;;;;;;;;;12.40;99.90;;;;;;5057855;28;19924;-80
2022/09/20 03:12:38;;;;;;;;;;;12.40;99.90;;;;;;5058110;28;19932;-79
2022/09/20 03:15:03;;;;;;;;;;;12.30;99.90;;;;;;5057743;28;19924;-79
2022/09/20 03:17:29;;;;;;;;;;;12.30;99.90;;;;;;5041234;28;19946;-80
2022/09/20 03:20:07;;;;;;;;;;;12.30;99.90;;;;;;5057523;28;19924;-79
2022/09/20 03:22:35;;;;;;;;;;;12.30;99.90;;;;;;5057462;28;20056;-79
2022/09/20 03:25:24;;;;;;;;;;;12.30;99.90;;;;;;5058162;28;19975;-80
2022/09/20 03:28:28;;;;;;;;;;;12.30;99.90;;;;;;5040711;28;19925;-79
2022/09/20 03:31:13;;;;;;;;;;;12.30;99.90;;;;;;4993538;28;20017;-79
2022/09/20 03:33:39;;;;;;;;;;;12.30;99.90;;;;;;4993259;28;19926;-80
2022/09/20 03:36:23;;;;;;;;;;;12.30;99.90;;;;;;5032412;28;19950;-80
2022/09/20 03:39:01;;;;;;;;;;;12.30;99.90;;;;;;5057443;28;19928;-79
2022/09/20 03:41:45;;;;;;;;;;;12.30;99.90;;;;;;5057662;28;19924;-79
2022/09/20 03:44:23;;;;;;;;;;;12.30;99.90;;;;;;5057880;28;19925;-79
2022/09/20 03:46:52;;;;;;;;;;;12.30;99.90;;;;;;5041232;28;19924;-79
2022/09/20 03:49:45;;;;;;;;;;;12.30;99.90;;;;;;5040461;28;19951;-80
2022/09/20 03:52:27;;;;;;;;;;;12.20;99.90;;;;;;5034670;28;19968;-79
2022/09/20 03:55:01;;;;;;;;;;;12.30;99.90;;;;;;5057671;28;20352;-79
2022/09/20 03:57:42;;;;;;;;;;;12.30;99.90;;;;;;5057146;28;19932;-79
2022/09/20 04:00:10;;;;;;;;;;;12.30;99.90;;;;;;5056691;28;19924;-79
2022/09/20 04:02:42;;;;;;;;;;;12.40;99.90;;;;;;5040171;28;19974;-79
2022/09/20 04:05:21;;;;;;;;;;;12.40;99.90;;;;;;5057411;28;19924;-79
2022/09/20 04:08:06;;;;;;;;;;;12.40;99.90;;;;;;5040376;28;19925;-79
2022/09/20 04:10:34;;;;;;;;;;;12.40;99.90;;;;;;5040041;28;20078;-80
2022/09/20 04:13:18;;;;;;;;;;;12.40;99.90;;;;;;5056833;28;19943;-79
2022/09/20 04:16:20;;;;;;;;;;;12.40;99.90;;;;;;5057229;28;19959;-79
2022/09/20 04:18:49;;;;;;;;;;;12.50;99.90;;;;;;4993487;28;19976;-79
2022/09/20 04:21:22;;;;;;;;;;;12.40;99.90;;;;;;5041436;28;19925;-79
2022/09/20 04:24:07;;;;;;;;;;;12.50;99.90;;;;;;5040697;28;19925;-80
2022/09/20 04:26:36;;;;;;;;;;;12.50;99.90;;;;;;5056083;28;19924;-79
2022/09/20 04:29:21;;;;;;;;;;;12.50;99.90;;;;;;5057197;28;20008;-79
2022/09/20 04:31:46;;;;;;;;;;;12.50;99.90;;;;;;5040442;28;19983;-79
2022/09/20 04:37:31;;;;;;;;;;;12.50;99.90;;;;;;5055706;28;20015;-79
2022/09/20 04:40:03;;;;;;;;;;;12.50;99.90;;;;;;5056151;28;19925;-79
2022/09/20 04:42:48;;;;;;;;;;;12.50;99.90;;;;;;5039709;28;19954;-79
2022/09/20 04:45:23;;;;;;;;;;;12.50;99.90;;;;;;5038879;28;19931;-79
2022/09/20 04:47:55;;;;;;;;;;;12.50;99.90;;;;;;5055884;28;20057;-79
2022/09/20 04:50:47;;;;;;;;;;;12.50;99.90;;;;;;5056817;28;19932;-79
2022/09/20 04:53:22;;;;;;;;;;;12.50;99.90;;;;;;5023359;28;20077;-79
2022/09/20 04:55:51;;;;;;;;;;;12.50;99.90;;;;;;5055968;28;19925;-79
2022/09/20 04:58:19;;;;;;;;;;;12.40;99.90;;;;;;5056774;28;20346;-79
2022/09/20 05:01:04;;;;;;;;;;;12.40;99.90;;;;;;5055937;28;19924;-79
2022/09/20 05:03:45;;;;;;;;;;;12.30;99.90;;;;;;5055821;28;20276;-79
2022/09/20 05:06:14;;;;;;;;;;;12.30;99.90;;;;;;5039601;28;19924;-79
2022/09/20 05:08:58;;;;;;;;;;;12.20;99.90;;;;;;5039279;28;19925;-79
2022/09/20 05:11:29;;;;;;;;;;;12.20;99.90;;;;;;5055763;28;20288;-79
2022/09/20 05:14:01;;;;;;;;;;;12.20;99.90;;;;;;5056554;28;19968;-79
2022/09/20 05:16:45;;;;;;;;;;;12.10;99.90;;;;;;5055909;28;19924;-79
2022/09/20 05:19:11;;;;;;;;;;;12.10;99.90;;;;;;5056546;28;19946;-79
2022/09/20 05:21:55;;;;;;;;;;;12.00;99.90;;;;;;5055342;28;20439;-79
2022/09/20 05:24:48;;;;;;;;;;;12.00;99.90;;;;;;5039181;28;19925;-79
2022/09/20 05:27:19;;;;;;;;;;;12.00;99.90;;;;;;5039204;28;19928;-79
2022/09/20 05:29:45;;;;;;;;;;;11.80;99.90;;;;;;5055662;28;19924;-79
2022/09/20 05:32:17;;;;;;;;;;;11.90;99.90;;;;;;5055588;28;19931;-79
2022/09/20 05:34:57;;;;;;;;;;;11.90;99.90;;;;;;5055474;28;20037;-79
2022/09/20 05:37:42;;;;;;;;;;;11.90;99.90;;;;;;5056440;28;19971;-79
2022/09/20 05:40:24;;;;;;;;;;;11.90;99.90;;;;;;5055456;28;19944;-79
2022/09/20 05:43:04;;;;;;;;;;;12.00;99.90;;;;;;5038984;28;19985;-79
2022/09/20 05:46:01;;;;;;;;;;;12.00;99.90;;;;;;5055751;28;19978;-79
2022/09/20 05:48:31;;;;;;;;;;;12.00;99.90;;;;;;5039604;28;19928;-79
2022/09/20 05:51:07;;;;;;;;;;;12.10;99.90;;;;;;5039721;28;19931;-79
2022/09/20 05:53:52;;;;;;;;;;;12.20;99.90;;;;;;5038799;28;19934;-80
2022/09/20 05:56:36;;;;;;;;;;;12.30;99.90;;;;;;5039788;28;19924;-79
2022/09/20 05:59:08;;;;;;;;;;;12.40;99.90;;;;;;5043223;28;19924;-79
2022/09/20 06:01:40;;;;;;;;;;;12.50;99.90;;;;;;5059417;28;19928;-79
2022/09/20 06:04:07;;;;;;;;;;;12.60;99.90;;;;;;5042713;28;20016;-80
2022/09/20 06:06:44;;;;;;;;;;;12.60;99.90;;;;;;5042328;28;19978;-79
2022/09/20 06:09:20;;;;;;;;;;;12.70;99.90;;;;;;5042255;28;19924;-79
2022/09/20 06:11:55;;;;;;;;;;;12.80;99.90;;;;;;5059694;28;20291;-80
2022/09/20 06:14:38;;;;;;;;;;;12.90;99.90;;;;;;5059018;28;19925;-79
2022/09/20 06:17:23;;;;;;;;;;;12.90;99.90;;;;;;5042873;28;20284;-75
2022/09/20 06:19:52;;;;;;;;;;;13.00;99.90;;;;;;5042284;28;19925;-76
2022/09/20 06:22:21;;;;;;;;;;;13.10;99.90;;;;;;5058905;28;19931;-76
2022/09/20 06:25:02;;;;;;;;;;;13.10;99.90;;;;;;5058603;28;19985;-74
2022/09/20 06:27:31;;;;;;;;;;;13.10;99.90;;;;;;5076346;28;20357;-77
2022/09/20 06:29:59;;;;;;;;;;;13.10;99.90;;;;;;5041861;28;19924;-81
2022/09/20 06:32:26;;;;;;;;;;;13.10;99.90;;;;;;5059251;28;20015;-76
2022/09/20 06:34:52;;;;;;;;;;;13.10;99.90;;;;;;5058489;28;19928;-78
2022/09/20 06:42:59;;;;;;;;;;;13.20;99.90;;;;;;5058323;28;19925;-77
2022/09/20 06:45:24;;;;;;;;;;;13.20;99.90;;;;;;5042141;28;19931;-77
2022/09/20 06:47:50;;;;;;;;;;;13.20;99.90;;;;;;5058192;28;20276;-77
2022/09/20 06:50:16;;;;;;;;;;;13.20;99.90;;;;;;5058431;28;19924;-76
2022/09/20 06:52:43;;;;;;;;;;;13.10;99.90;;;;;;5042213;28;19924;-77
2022/09/20 06:55:14;;;;;;;;;;;13.20;99.90;;;;;;5041734;28;19971;-76
2022/09/20 06:57:40;;;;;;;;;;;13.20;99.90;;;;;;5042146;28;19970;-76
2022/09/20 07:00:09;;;;;;;;;;;13.20;99.90;;;;;;5024712;28;20318;-77
2022/09/20 07:02:34;;;;;;;;;;;13.20;99.90;;;;;;5042082;28;20310;-76
2022/09/20 07:05:00;;;;;;;;;;;13.20;99.90;;;;;;5057879;28;19929;-76
2022/09/20 07:07:25;;;;;;;;;;;13.30;99.90;;;;;;5040733;28;19932;-75
2022/09/20 07:09:51;;;;;;;;;;;13.30;99.90;;;;;;5057708;28;19986;-72
2022/09/20 07:12:17;;;;;;;;;;;13.40;99.90;;;;;;5041202;28;19924;-78
2022/09/20 07:14:43;;;;;;;;;;;13.50;99.90;;;;;;5041426;28;19928;-78
2022/09/20 07:17:08;;;;;;;;;;;13.50;99.90;;;;;;5058109;28;20417;-78
2022/09/20 07:19:35;;;;;;;;;;;13.50;99.90;;;;;;5057702;28;20015;-78
2022/09/20 07:22:01;;;;;;;;;;;13.60;99.90;;;;;;5040547;28;19924;-77
2022/09/20 07:24:28;;;;;;;;;;;13.60;99.90;;;;;;5057800;28;19978;-78
2022/09/20 07:26:55;;;;;;;;;;;13.70;99.90;;;;;;5040503;28;19925;-78
2022/09/20 07:29:21;;;;;;;;;;;13.80;99.90;;;;;;5057601;28;19924;-78
2022/09/20 07:31:48;;;;;;;;;;;14.00;99.90;;;;;;5057332;28;19925;-79
2022/09/20 07:34:14;;;;;;;;;;;14.00;99.90;;;;;;5056989;28;19976;-78
2022/09/20 07:36:39;;;;;;;;;;;14.00;99.90;;;;;;5040994;28;19936;-78
2022/09/20 07:39:05;;;;;;;;;;;14.10;99.90;;;;;;5040907;28;19974;-80
2022/09/20 07:41:31;;;;;;;;;;;14.10;99.90;;;;;;5056883;28;20019;-77
2022/09/20 07:44:19;;;;;;;;;;;14.10;99.90;;;;;;5040492;28;19931;-79
2022/09/20 07:46:44;;;;;;;;;;;14.20;99.90;;;;;;5043114;28;19944;-79
2022/09/20 07:49:09;;;;;;;;;;;14.20;99.90;;;;;;5056921;28;19979;-78
2022/09/20 07:51:35;;;;;;;;;;;14.30;99.90;;;;;;5041159;28;19975;-80
2022/09/20 07:54:01;;;;;;;;;;;14.30;99.90;;;;;;5040413;28;19925;-79
2022/09/20 07:56:26;;;;;;;;;;;14.30;99.90;;;;;;5057645;28;19925;-79
2022/09/20 07:58:52;;;;;;;;;;;14.30;99.90;;;;;;5056692;28;20366;-79
2022/09/20 08:01:19;;;;;;;;;;;14.40;99.90;;;;;;5056593;28;19924;-78
2022/09/20 08:03:45;;;;;;;;;;;14.40;99.90;;;;;;5056660;28;20284;-79
2022/09/20 08:06:13;;;;;;;;;;;14.40;99.90;;;;;;5056677;28;20027;-79
2022/09/20 08:08:41;;;;;;;;;;;14.40;99.90;;;;;;5056706;28;20395;-78
2022/09/20 08:11:09;;;;;;;;;;;14.40;99.90;;;;;;5056554;28;19970;-79
2022/09/20 08:13:38;;;;;;;;;;;14.40;99.90;;;;;;5056517;28;19932;-79
2022/09/20 08:16:06;;;;;;;;;;;14.40;99.90;;;;;;5056458;28;19975;-77
2022/09/20 08:18:33;;;;;;;;;;;14.50;99.90;;;;;;5056741;28;20011;-77
2022/09/20 08:21:06;;;;;;;;;;;14.50;99.90;;;;;;5039936;28;19924;-77
2022/09/20 08:23:41;;;;;;;;;;;14.50;99.90;;;;;;5056401;28;20042;-77
2022/09/20 08:26:08;;;;;;;;;;;14.60;99.90;;;;;;5039834;28;20061;-77
2022/09/20 08:28:34;;;;;;;;;;;14.70;99.90;;;;;;5038780;28;19935;-77
2022/09/20 08:31:07;;;;;;;;;;;14.70;99.90;;;;;;5039871;28;19929;-78
2022/09/20 08:33:35;;;;;;;;;;;14.80;99.90;;;;;;5057031;28;20014;-78
2022/09/20 08:36:01;;;;;;;;;;;14.90;99.90;;;;;;5056193;28;19931;-74
2022/09/20 08:38:26;;;;;;;;;;;14.90;99.90;;;;;;5074375;28;19925;-80
2022/09/20 08:40:57;;;;;;;;;;;15.00;99.90;;;;;;5022979;28;20331;-78
2022/09/20 08:43:25;;;;;;;;;;;15.00;99.90;;;;;;5039443;28;20362;-75
2022/09/20 08:45:51;;;;;;;;;;;15.10;99.90;;;;;;5056725;28;19939;-74
2022/09/20 08:48:17;;;;;;;;;;;15.10;99.90;;;;;;5056069;28;20392;-73
2022/09/20 08:50:42;;;;;;;;;;;15.20;99.90;;;;;;5073628;28;19931;-74
2022/09/20 08:53:11;;;;;;;;;;;15.40;99.90;;;;;;5055878;28;20387;-75
2022/09/20 08:55:40;;;;;;;;;;;15.70;99.90;;;;;;5055855;28;19925;-75
2022/09/20 08:58:10;;;;;;;;;;;16.00;99.90;;;;;;5055902;28;20418;-81
2022/09/20 09:00:37;;;;;;;;;;;16.20;99.90;;;;;;5039124;28;20364;-76
2022/09/20 09:03:04;;;;;;;;;;;16.20;99.90;;;;;;5039152;28;20379;-72
2022/09/20 09:05:31;;;;;;;;;;;16.30;99.90;;;;;;5055787;28;19924;-76
2022/09/20 09:08:02;;;;;;;;;;;16.30;99.90;;;;;;5055771;28;19932;-79
2022/09/20 09:10:35;;;;;;;;;;;16.30;99.90;;;;;;5056120;28;19974;-77
2022/09/20 09:13:01;;;;;;;;;;;16.30;99.90;;;;;;5056097;28;19928;-77
2022/09/20 09:15:28;;;;;;;;;;;16.30;99.90;;;;;;5039471;28;20023;-77
2022/09/20 09:17:54;;;;;;;;;;;16.20;99.90;;;;;;5056464;28;20030;-78
2022/09/20 09:20:21;;;;;;;;;;;16.20;99.90;;;;;;5055816;28;20230;-78
2022/09/20 09:22:56;;;;;;;;;;;16.20;99.90;;;;;;5055665;28;19925;-77
2022/09/20 09:25:22;;;;;;;;;;;16.20;99.90;;;;;;5055972;28;19931;-76
2022/09/20 09:27:49;;;;;;;;;;;16.10;99.90;;;;;;5038892;28;20010;-78
2022/09/20 09:30:25;;;;;;;;;;;16.20;99.90;;;;;;5055627;28;20007;-76
2022/09/20 09:32:52;;;;;;;;;;;16.40;99.90;;;;;;5059591;28;19924;-76
2022/09/20 09:35:22;;;;;;;;;;;16.50;99.90;;;;;;5042999;28;19928;-76
2022/09/20 09:37:56;;;;;;;;;;;16.50;99.90;;;;;;5059744;28;19932;-77
2022/09/20 09:40:22;;;;;;;;;;;16.60;99.90;;;;;;5059244;28;19925;-75
2022/09/20 09:42:49;;;;;;;;;;;16.60;99.90;;;;;;5043011;28;20014;-76
2022/09/20 09:45:25;;;;;;;;;;;16.50;99.90;;;;;;5059357;28;19970;-76
2022/09/20 09:47:51;;;;;;;;;;;16.40;99.90;;;;;;5059638;28;19924;-76
2022/09/20 09:50:22;;;;;;;;;;;16.40;99.90;;;;;;5059451;28;19947;-76
2022/09/20 09:52:58;;;;;;;;;;;16.30;99.90;;;;;;5059271;28;19924;-76
2022/09/20 09:55:26;;;;;;;;;;;16.30;99.90;;;;;;5042641;28;19928;-76
2022/09/20 09:58:19;;;;;;;;;;;16.20;99.90;;;;;;5059153;28;19924;-76
2022/09/20 10:00:45;;;;;;;;;;;16.20;99.90;;;;;;5042545;28;19973;-76
2022/09/20 10:03:14;;;;;;;;;;;16.20;99.90;;;;;;5059804;28;19987;-76
2022/09/20 10:05:59;;;;;;;;;;;16.20;99.90;;;;;;5058881;28;20421;-75
2022/09/20 10:08:30;;;;;;;;;;;16.10;99.90;;;;;;5058966;28;19924;-77
2022/09/20 10:11:14;;;;;;;;;;;16.30;99.90;;;;;;5042229;28;20352;-78
2022/09/20 10:13:43;;;;;;;;;;;16.40;99.90;;;;;;5042532;28;20000;-77
2022/09/20 10:16:08;;;;;;;;;;;16.50;99.90;;;;;;5058774;28;19929;-77
2022/09/20 10:18:53;;;;;;;;;;;16.70;99.90;;;;;;5042188;28;19924;-76
2022/09/20 10:21:24;;;;;;;;;;;16.90;99.90;;;;;;5058507;28;19983;-77
2022/09/20 10:24:09;;;;;;;;;;;17.10;99.90;;;;;;5042238;28;20278;-78
2022/09/20 10:26:56;;;;;;;;;;;17.20;99.90;;;;;;5042285;28;19976;-76
2022/09/20 10:29:28;;;;;;;;;;;17.40;99.90;;;;;;5058805;28;20007;-79
2022/09/20 10:31:56;;;;;;;;;;;17.20;99.90;;;;;;5058823;28;19936;-80
2022/09/20 10:34:25;;;;;;;;;;;17.20;99.90;;;;;;5041806;28;19925;-79
2022/09/20 10:36:57;;;;;;;;;;;17.10;99.90;;;;;;5058153;28;19924;-80
2022/09/20 10:39:22;;;;;;;;;;;17.00;99.90;;;;;;5041833;28;19946;-80
2022/09/20 10:44:57;;;;;;;;;;;17.20;99.90;;;;;;5058739;28;19942;-79
2022/09/20 10:47:31;;;;;;;;;;;17.60;99.90;;;;;;5058569;28;19924;-79
2022/09/20 10:50:06;;;;;;;;;;;17.60;99.90;;;;;;5058484;28;20365;-81
2022/09/20 10:52:50;;;;;;;;;;;17.70;99.90;;;;;;5058973;28;19924;-79
2022/09/20 10:55:25;;;;;;;;;;;17.70;99.90;;;;;;5058864;28;19925;-81
2022/09/20 10:58:03;;;;;;;;;;;17.80;99.90;;;;;;5058399;28;19925;-77
2022/09/20 11:00:45;;;;;;;;;;;17.80;99.90;;;;;;5041518;28;19924;-80
2022/09/20 11:03:14;;;;;;;;;;;17.70;99.90;;;;;;5041354;28;20023;-77
2022/09/20 11:05:54;;;;;;;;;;;17.60;99.90;;;;;;5058667;28;19924;-76
2022/09/20 11:08:24;;;;;;;;;;;17.40;99.90;;;;;;5058636;28;19925;-77
2022/09/20 11:10:53;;;;;;;;;;;17.60;99.90;;;;;;5041169;28;19991;-79
2022/09/20 11:13:21;;;;;;;;;;;17.50;99.90;;;;;;5057794;28;19924;-79
2022/09/20 11:15:51;;;;;;;;;;;17.40;99.90;;;;;;5058363;28;19971;-79
2022/09/20 11:18:39;;;;;;;;;;;17.50;99.90;;;;;;5041121;28;19928;-79
2022/09/20 11:21:16;;;;;;;;;;;17.50;99.90;;;;;;5057213;28;19924;-79
2022/09/20 11:23:47;;;;;;;;;;;17.30;99.90;;;;;;5057415;28;19924;-73
2022/09/20 11:26:17;;;;;;;;;;;17.10;99.90;;;;;;5057943;28;19975;-79
2022/09/20 11:28:45;;;;;;;;;;;17.40;99.90;;;;;;5053200;28;19972;-76
2022/09/20 11:31:29;;;;;;;;;;;17.30;99.90;;;;;;5054482;28;19925;-74
2022/09/20 11:33:58;;;;;;;;;;;17.60;99.90;;;;;;5053448;28;19925;-75
2022/09/20 11:36:39;;;;;;;;;;;17.90;99.90;;;;;;5055086;28;19928;-76
2022/09/20 11:39:14;;;;;;;;;;;18.20;99.90;;;;;;5055099;28;19924;-75
2022/09/20 11:41:40;;;;;;;;;;;18.40;99.90;;;;;;5053247;28;20357;-75
2022/09/20 11:44:08;;;;;;;;;;;18.70;99.90;;;;;;5054738;28;20327;-75
2022/09/20 11:46:40;;;;;;;;;;;19.20;99.90;;;;;;5053647;28;19925;-75
2022/09/20 11:49:08;;;;;;;;;;;19.70;99.90;;;;;;5054052;28;20280;-76
2022/09/20 11:51:45;;;;;;;;;;;19.90;99.70;;;;;;5053337;28;19928;-73
2022/09/20 11:54:11;;;;;;;;;;;20.10;99.10;;;;;;5052550;28;20007;-78
2022/09/20 11:56:37;;;;;;;;;;;19.90;97.80;;;;;;5036355;28;20368;-75
2022/09/20 11:59:19;;;;;;;;;;;20.00;98.80;;;;;;5052967;28;19924;-74
2022/09/20 12:01:45;;;;;;;;;;;20.30;98.80;;;;;;5053323;28;19924;-76
2022/09/20 12:04:22;;;;;;;;;;;20.50;96.20;;;;;;5036485;28;19975;-75
2022/09/20 12:06:57;;;;;;;;;;;20.60;97.80;;;;;;5054385;28;19932;-77
2022/09/20 12:09:33;;;;;;;;;;;20.80;97.60;;;;;;5052782;28;20321;-75
2022/09/20 12:12:12;;;;;;;;;;;20.80;95.80;;;;;;5053307;28;20025;-74
2022/09/20 12:14:38;;;;;;;;;;;20.60;95.80;;;;;;5054234;28;19925;-77
2022/09/20 12:17:04;;;;;;;;;;;20.60;93.60;;;;;;5036071;28;19986;-78
2022/09/20 12:19:33;;;;;;;;;;;20.60;93.60;;;;;;5052514;28;19925;-75
2022/09/20 12:21:58;;;;;;;;;;;20.40;92.80;;;;;;5052630;28;19931;-74
2022/09/20 12:24:24;;;;;;;;;;;20.40;95.20;;;;;;5052732;28;19929;-74
2022/09/20 12:26:50;;;;;;;;;;;20.70;96.20;;;;;;5054391;28;20284;-73
2022/09/20 12:29:22;;;;;;;;;;;20.80;96.70;;;;;;5056234;28;20390;-76
2022/09/20 12:31:48;;;;;;;;;;;21.00;96.00;;;;;;5056013;28;19925;-74
2022/09/20 12:34:14;;;;;;;;;;;21.30;95.20;;;;;;5055889;28;20023;-74
2022/09/20 12:36:43;;;;;;;;;;;21.50;95.30;;;;;;5055804;28;19931;-75
2022/09/20 12:39:12;;;;;;;;;;;21.50;95.60;;;;;;5055887;28;19924;-75
2022/09/20 12:41:50;;;;;;;;;;;21.90;95.80;;;;;;5056246;28;19970;-74
2022/09/20 12:44:33;;;;;;;;;;;21.90;95.10;;;;;;5055038;28;19951;-83
2022/09/20 12:47:00;;;;;;;;;;;22.40;95.80;;;;;;5055385;28;19924;-75
2022/09/20 12:55:24;;;;;;;;;;;23.20;95.90;;;;;;5073788;28;19924;-75
2022/09/20 12:57:57;;;;;;;;;;;22.80;98.00;;;;;;5056381;28;20268;-73
2022/09/20 13:00:37;;;;;;;;;;;22.20;97.60;;;;;;5055379;28;20419;-74
2022/09/20 13:03:22;;;;;;;;;;;21.60;97.80;;;;;;5055067;28;19940;-77
2022/09/20 13:05:51;;;;;;;;;;;21.80;99.70;;;;;;5054786;28;19931;-76
2022/09/20 13:08:20;;;;;;;;;;;21.80;99.40;;;;;;5055591;28;19924;-76
2022/09/20 13:10:48;;;;;;;;;;;22.30;99.20;;;;;;5055422;28;19924;-76
2022/09/20 13:13:25;;;;;;;;;;;23.00;99.70;;;;;;5055366;28;19924;-76
2022/09/20 13:15:52;;;;;;;;;;;23.70;98.30;;;;;;5055753;28;19994;-75
2022/09/20 13:18:18;;;;;;;;;;;24.20;97.30;;;;;;5055491;28;20261;-78
2022/09/20 13:20:44;;;;;;;;;;;24.90;97.60;;;;;;5055214;28;19936;-77
2022/09/20 13:23:17;;;;;;;;;;;25.40;96.10;;;;;;5055327;28;19924;-77
2022/09/20 13:25:43;;;;;;;;;;;25.80;96.00;;;;;;5055354;28;19938;-77
2022/09/20 13:28:17;;;;;;;;;;;26.00;95.30;;;;;;5072719;28;19924;-78
2022/09/20 13:30:43;;;;;;;;;;;26.00;93.60;;;;;;5055495;28;19924;-76
2022/09/20 13:33:21;;;;;;;;;;;25.60;93.40;;;;;;5072956;28;19947;-75
2022/09/20 13:35:49;;;;;;;;;;;25.70;93.50;;;;;;5055430;28;19924;-76
2022/09/20 13:38:23;;;;;;;;;;;26.00;93.20;;;;;;5055305;28;19978;-76
2022/09/20 13:40:52;;;;;;;;;;;26.10;91.70;;;;;;5055772;28;19925;-75
2022/09/20 13:43:21;;;;;;;;;;;26.40;92.10;;;;;;5054560;28;19928;-76
2022/09/20 13:45:49;;;;;;;;;;;25.70;91.20;;;;;;5054753;28;19931;-76
2022/09/20 13:48:15;;;;;;;;;;;25.50;91.20;;;;;;5055901;28;19947;-77
2022/09/20 13:50:41;;;;;;;;;;;25.00;91.10;;;;;;5072749;28;20383;-78
2022/09/20 13:53:14;;;;;;;;;;;25.00;90.90;;;;;;5039296;28;19924;-80
2022/09/20 13:55:41;;;;;;;;;;;24.80;91.30;;;;;;5055894;28;20021;-82
2022/09/20 13:58:06;;;;;;;;;;;25.10;92.00;;;;;;5055749;28;19924;-80
2022/09/20 14:00:33;;;;;;;;;;;25.00;90.90;;;;;;5038221;28;19925;-79
2022/09/20 14:02:59;;;;;;;;;;;25.20;90.50;;;;;;5039124;28;20256;-75
2022/09/20 14:05:28;;;;;;;;;;;25.60;90.00;;;;;;5038419;28;20007;-74
2022/09/20 14:07:55;;;;;;;;;;;26.00;90.40;;;;;;5055152;28;20371;-80
2022/09/20 14:10:42;;;;;;;;;;;26.50;90.00;;;;;;5055166;28;20023;-79
2022/09/20 14:13:13;;;;;;;;;;;27.00;90.40;;;;;;5055235;28;19947;-79
2022/09/20 14:15:43;;;;;;;;;;;27.30;90.30;;;;;;5054629;28;19924;-84
2022/09/20 14:18:15;;;;;;;;;;;27.40;88.10;;;;;;5058456;28;19930;-90
2022/09/20 14:20:42;;;;;;;;;;;27.30;85.80;;;;;;5041644;28;20058;-78
2022/09/20 14:23:24;;;;;;;;;;;27.50;88.00;;;;;;5042191;28;20019;-79
2022/09/20 14:26:07;;;;;;;;;;;27.50;85.30;;;;;;5058226;28;19947;-79
2022/09/20 14:28:33;;;;;;;;;;;27.90;86.30;;;;;;5057490;28;19975;-78
2022/09/20 14:31:07;;;;;;;;;;;27.60;83.60;;;;;;5058254;28;19976;-78
2022/09/20 14:33:32;;;;;;;;;;;27.70;80.40;;;;;;5058053;28;20011;-79
2022/09/20 14:35:58;;;;;;;;;;;27.90;82.50;;;;;;5042050;28;20349;-78
2022/09/20 14:38:25;;;;;;;;;;;28.00;82.20;;;;;;5058317;28;19976;-76
2022/09/20 14:40:51;;;;;;;;;;;28.20;81.80;;;;;;5057894;28;20273;-79
2022/09/20 14:43:20;;;;;;;;;;;27.70;83.40;;;;;;5041039;28;19924;-79
2022/09/20 14:45:50;;;;;;;;;;;27.30;83.00;;;;;;5058005;28;19924;-78
2022/09/20 14:48:16;;;;;;;;;;;27.00;82.50;;;;;;5058703;28;19924;-79
2022/09/20 14:50:45;;;;;;;;;;;27.30;84.30;;;;;;5058058;28;20318;-77
2022/09/20 15:23:50;;;;;;;;;;;26.70;79.10;;;;;;5121182;27;1973673;-76
2022/09/20 15:26:18;;;;;;;;;;;25.60;82.40;;;;;;5126438;27;19933;-74
2022/09/20 15:28:44;;;;;;;;;;;24.70;84.90;;;;;;5142276;27;19967;-76
2022/09/20 15:31:10;;;;;;;;;;;23.70;86.00;;;;;;5151897;27;19931;-77